createdAt,value
2022-09-12T00:02:13.291Z,5.90
2022-09-12T00:08:22.005Z,5.50
2022-09-12T00:14:41.968Z,5.60
2022-09-12T00:21:10.876Z,5.50
2022-09-12T00:26:50.719Z,6.20
2022-09-12T00:32:32.646Z,6.50
2022-09-12T00:38:50.109Z,6.30
2022-09-12T00:45:14.970Z,6.70
2022-09-12T00:51:38.522Z,6.30
2022-09-12T00:58:07.529Z,6.80
2022-09-12T01:04:14.893Z,7.10
2022-09-12T01:10:15.996Z,7.10
2022-09-12T01:16:24.675Z,7.50
2022-09-12T01:22:50.109Z,7.00
2022-09-12T01:30:08.531Z,6.20
2022-09-12T01:36:58.401Z,6.50
2022-09-12T01:43:25.698Z,7.40
2022-09-12T01:50:11.987Z,5.80
2022-09-12T01:56:25.895Z,6.50
2022-09-12T02:02:20.200Z,6.60
2022-09-12T02:08:32.354Z,6.10
2022-09-12T02:14:37.047Z,6.80
2022-09-12T02:20:56.400Z,5.50
2022-09-12T02:27:10.036Z,5.70
2022-09-12T02:33:37.761Z,5.90
2022-09-12T02:39:52.821Z,6.10
2022-09-12T02:46:14.107Z,6.20
2022-09-12T02:52:33.672Z,5.60
2022-09-12T02:58:58.036Z,6.00
2022-09-12T03:05:25.440Z,5.60
2022-09-12T03:12:18.516Z,5.50
2022-09-12T03:18:43.321Z,5.00
2022-09-12T03:25:37.296Z,5.00
2022-09-12T03:32:18.944Z,5.90
2022-09-12T03:39:06.812Z,6.30
2022-09-12T03:45:32.659Z,6.50
2022-09-12T03:51:31.129Z,6.60
2022-09-12T03:56:45.715Z,5.60
2022-09-12T04:02:36.504Z,6.90
2022-09-12T04:08:12.295Z,6.40
2022-09-12T04:13:46.872Z,5.10
2022-09-12T04:19:42.339Z,6.90
2022-09-12T04:25:37.908Z,6.80
2022-09-12T04:31:42.001Z,5.90
2022-09-12T04:38:07.893Z,6.30
2022-09-12T04:44:03.222Z,5.80
2022-09-12T04:50:19.344Z,6.70
2022-09-12T04:56:19.751Z,6.50
2022-09-12T05:07:38.214Z,6.20
2022-09-12T05:13:26.074Z,5.90
2022-09-12T05:19:27.997Z,6.60
2022-09-12T05:31:01.167Z,6.30
2022-09-12T05:36:58.317Z,6.10
2022-09-12T05:42:54.925Z,5.50
2022-09-12T05:48:39.614Z,5.80
2022-09-12T05:54:20.823Z,5.70
2022-09-12T06:00:13.951Z,5.40
2022-09-12T06:05:56.728Z,4.60
2022-09-12T06:11:50.937Z,4.90
2022-09-12T06:18:00.037Z,4.80
2022-09-12T06:24:12.027Z,4.20
2022-09-12T06:29:21.992Z,4.10
2022-09-12T06:34:38.175Z,4.50
2022-09-12T06:39:57.487Z,3.90
2022-09-12T06:45:31.499Z,3.10
2022-09-12T06:51:06.217Z,3.50
2022-09-12T06:56:48.262Z,3.50
2022-09-12T07:02:20.171Z,2.90
2022-09-12T07:08:12.879Z,2.70
2022-09-12T07:13:45.160Z,2.80
2022-09-12T07:19:05.648Z,2.70
2022-09-12T07:24:12.016Z,2.60
2022-09-12T07:29:36.885Z,2.50
2022-09-12T07:34:50.073Z,2.60
2022-09-12T07:40:13.230Z,2.00
2022-09-12T07:46:01.612Z,2.00
2022-09-12T07:51:38.422Z,2.10
2022-09-12T07:57:22.423Z,1.60
2022-09-12T08:02:50.708Z,1.80
2022-09-12T08:08:27.717Z,1.60
2022-09-12T08:14:17.842Z,1.70
2022-09-12T08:20:25.361Z,1.50
2022-09-12T08:26:08.592Z,1.80
2022-09-12T08:32:08.386Z,1.60
2022-09-12T08:37:13.612Z,1.60
2022-09-12T08:43:18.042Z,1.70
2022-09-12T08:48:34.308Z,1.60
2022-09-12T08:54:04.148Z,1.70
2022-09-12T08:59:49.395Z,1.90
2022-09-12T09:05:33.772Z,1.70
2022-09-12T09:11:46.764Z,1.50
2022-09-12T09:17:08.836Z,1.40
2022-09-12T09:23:15.988Z,1.30
2022-09-12T09:29:02.563Z,1.60
2022-09-12T09:34:48.605Z,1.60
2022-09-12T09:40:27.015Z,1.50
2022-09-12T09:46:12.363Z,1.50
2022-09-12T09:51:42.032Z,1.40
2022-09-12T09:57:12.474Z,1.40
2022-09-12T10:02:38.839Z,1.20
2022-09-12T10:07:50.374Z,1.30
2022-09-12T10:13:18.000Z,1.50
2022-09-12T10:18:42.551Z,1.30
2022-09-12T10:24:00.204Z,1.60
2022-09-12T10:29:35.316Z,1.70
2022-09-12T10:34:55.099Z,1.10
2022-09-12T10:40:20.783Z,1.70
2022-09-12T10:45:47.260Z,1.40
2022-09-12T10:51:07.007Z,1.40
2022-09-12T10:56:33.758Z,1.80
2022-09-12T11:02:34.697Z,1.40
2022-09-12T11:09:18.635Z,2.00
2022-09-12T11:15:30.389Z,1.30
2022-09-12T11:21:39.980Z,1.50
2022-09-12T11:27:18.545Z,1.50
2022-09-12T11:33:58.807Z,1.70
2022-09-12T11:39:45.042Z,1.40
2022-09-12T11:44:57.755Z,1.70
2022-09-12T11:50:26.471Z,1.80
2022-09-12T11:55:44.018Z,1.90
2022-09-12T12:01:03.335Z,1.70
2022-09-12T12:06:42.016Z,1.90
2022-09-12T12:11:57.148Z,1.90
2022-09-12T12:17:34.771Z,2.10
2022-09-12T12:22:37.475Z,2.10
2022-09-12T12:27:55.945Z,1.90
2022-09-12T12:33:30.215Z,1.60
2022-09-12T12:38:52.528Z,1.90
2022-09-12T12:43:57.885Z,1.50
2022-09-12T12:49:24.739Z,2.10
2022-09-12T12:54:27.219Z,1.70
2022-09-12T12:59:32.507Z,1.50
2022-09-12T13:04:35.185Z,1.80
2022-09-12T13:10:07.037Z,1.90
2022-09-12T13:16:06.146Z,1.50
2022-09-12T13:21:23.959Z,1.50
2022-09-12T13:26:36.273Z,1.50
2022-09-12T13:32:00.840Z,2.10
2022-09-12T13:37:51.427Z,1.80
2022-09-12T13:43:57.300Z,1.50
2022-09-12T13:49:33.577Z,1.90
2022-09-12T13:54:48.586Z,2.20
2022-09-12T13:59:57.628Z,1.80
2022-09-12T14:10:38.078Z,1.80
2022-09-12T14:15:45.470Z,1.80
2022-09-12T14:20:54.220Z,1.10
2022-09-12T14:26:08.361Z,1.70
2022-09-12T14:32:09.770Z,1.30
2022-09-12T14:37:25.340Z,1.20
2022-09-12T14:42:50.456Z,1.60
2022-09-12T14:48:21.416Z,1.60
2022-09-12T14:53:45.488Z,1.90
2022-09-12T15:00:20.258Z,1.20
2022-09-12T15:05:26.039Z,1.80
2022-09-12T15:11:21.599Z,1.30
2022-09-12T15:17:03.419Z,1.40
2022-09-12T15:22:14.196Z,1.40
2022-09-12T15:27:25.137Z,1.70
2022-09-12T15:32:31.103Z,1.70
2022-09-12T15:38:17.100Z,1.90
2022-09-12T15:43:49.638Z,1.60
2022-09-12T15:49:23.639Z,1.90
2022-09-12T15:54:28.588Z,1.70
2022-09-12T15:59:42.243Z,1.90
2022-09-12T16:05:22.564Z,1.70
2022-09-12T16:10:49.726Z,1.80
2022-09-12T16:21:40.007Z,1.80
2022-09-12T16:27:17.803Z,1.70
2022-09-12T16:32:47.558Z,1.90
2022-09-12T16:38:04.249Z,1.80
2022-09-12T16:43:31.331Z,2.00
2022-09-12T16:49:13.164Z,2.50
2022-09-12T17:00:47.922Z,2.70
2022-09-12T17:06:15.870Z,3.70
2022-09-12T17:11:45.225Z,3.50
2022-09-12T17:17:07.364Z,3.30
2022-09-12T17:22:38.671Z,3.30
2022-09-12T17:28:05.850Z,3.70
2022-09-12T17:33:25.080Z,4.20
2022-09-12T17:39:03.937Z,4.50
2022-09-12T17:44:53.014Z,32.40
2022-09-12T17:50:30.873Z,5.70
2022-09-12T17:56:05.431Z,5.00
2022-09-12T18:01:52.649Z,5.10
2022-09-12T18:13:26.945Z,5.60
2022-09-12T18:18:37.771Z,6.50
2022-09-12T18:24:25.514Z,6.40
2022-09-12T18:30:21.018Z,7.10
2022-09-12T18:35:39.309Z,6.90
2022-09-12T18:41:57.123Z,6.90
2022-09-12T18:47:30.642Z,6.30
2022-09-12T18:52:59.518Z,6.50
2022-09-12T18:58:02.181Z,6.80
2022-09-12T19:04:20.338Z,6.90
2022-09-12T19:10:43.720Z,7.20
2022-09-12T19:16:27.362Z,6.10
2022-09-12T19:21:56.165Z,6.00
2022-09-12T19:27:13.116Z,6.90
2022-09-12T19:33:23.665Z,6.90
2022-09-12T19:39:07.526Z,7.00
2022-09-12T19:44:55.977Z,6.80
2022-09-12T19:50:12.562Z,7.20
2022-09-12T19:55:15.022Z,7.30
2022-09-12T20:00:48.955Z,7.40
2022-09-12T20:06:06.934Z,8.60
2022-09-12T20:11:10.611Z,8.30
2022-09-12T20:16:33.563Z,8.70
2022-09-12T20:22:10.752Z,6.80
2022-09-12T20:27:12.995Z,8.70
2022-09-12T20:32:23.965Z,8.40
2022-09-12T20:37:41.149Z,9.80
2022-09-12T20:42:54.637Z,11.00
2022-09-12T20:48:09.915Z,10.10
2022-09-12T20:53:45.665Z,10.90
2022-09-12T20:59:06.216Z,12.20
2022-09-12T21:04:54.094Z,11.70
2022-09-12T21:10:47.037Z,12.00
2022-09-12T21:17:07.726Z,15.20
2022-09-12T21:23:41.215Z,15.00
2022-09-12T21:29:34.604Z,14.40
2022-09-12T21:35:11.207Z,14.10
2022-09-12T21:40:57.465Z,14.30
2022-09-12T21:46:17.116Z,14.00
2022-09-12T21:51:57.834Z,13.00
2022-09-12T21:57:20.327Z,12.20
2022-09-12T22:03:28.203Z,12.80
2022-09-12T22:09:10.548Z,12.40
2022-09-12T22:14:29.770Z,11.00
2022-09-12T22:20:00.970Z,9.50
2022-09-12T22:26:18.419Z,8.90
2022-09-12T22:32:11.219Z,8.60
2022-09-12T22:38:32.895Z,8.80
2022-09-12T22:44:25.627Z,7.70
2022-09-12T22:50:21.479Z,7.30
2022-09-12T22:56:20.295Z,8.30
2022-09-12T23:02:29.781Z,8.20
2022-09-12T23:07:52.769Z,10.20
2022-09-12T23:13:20.705Z,8.50
2022-09-12T23:18:52.176Z,8.70
2022-09-12T23:24:04.900Z,8.10
2022-09-12T23:29:35.695Z,7.70
2022-09-12T23:34:59.625Z,9.20
2022-09-12T23:40:37.018Z,8.50
2022-09-12T23:46:19.802Z,9.20
2022-09-12T23:52:11.148Z,9.60
2022-09-12T23:58:34.113Z,9.00
